Time;durP1;ratioP1;P1;durP2;ratioP2;P2;SDS_P1;SDS_P2;PMS_P1;PMS_P2;Temp;Humidity;BMP_temperature;BMP_pressure;BME280_temperature;BME280_humidity;BME280_pressure;Samples;Min_cycle;Max_cycle;Signal;HPM_P1;HPM_P2
2021/11/22 00:00:13;;;;;;;8.32;4.35;;;3.90;99.90;;;;;;5033546;28;20083;-46
2021/11/22 00:02:39;;;;;;;8.40;4.65;;;4.00;99.90;;;;;;5033428;28;20030;-43
2021/11/22 00:05:04;;;;;;;8.88;3.70;;;4.10;99.90;;;;;;5032065;28;20026;-41
2021/11/22 00:07:30;;;;;;;8.45;3.95;;;4.20;99.90;;;;;;5033256;28;20034;-42
2021/11/22 00:09:56;;;;;;;8.93;2.95;;;4.30;99.90;;;;;;5033373;28;20021;-41
2021/11/22 00:12:21;;;;;;;6.47;3.13;;;4.30;99.90;;;;;;5033353;28;20033;-41
2021/11/22 00:14:47;;;;;;;6.20;2.95;;;4.50;99.90;;;;;;5033361;28;20384;-40
2021/11/22 00:17:13;;;;;;;6.63;2.92;;;4.50;99.90;;;;;;5033281;28;20500;-41
2021/11/22 00:19:39;;;;;;;6.68;2.58;;;4.60;99.90;;;;;;5031880;28;20473;-40
2021/11/22 00:22:05;;;;;;;4.88;2.50;;;4.60;99.90;;;;;;5033142;28;20032;-40
2021/11/22 00:24:31;;;;;;;5.57;2.60;;;4.70;99.90;;;;;;5033112;28;20416;-41
2021/11/22 00:26:57;;;;;;;11.15;3.45;;;4.70;99.90;;;;;;5033142;28;20109;-43
2021/11/22 00:29:22;;;;;;;6.93;2.90;;;4.70;99.90;;;;;;5032897;28;20026;-41
2021/11/22 00:31:50;;;;;;;4.47;2.38;;;4.80;99.90;;;;;;5033023;28;20041;-40
2021/11/22 00:34:16;;;;;;;4.43;2.38;;;4.90;99.90;;;;;;5031464;28;20375;-43
2021/11/22 00:36:41;;;;;;;5.43;2.63;;;4.90;99.90;;;;;;5032814;28;20469;-41
2021/11/22 00:39:08;;;;;;;6.68;3.33;;;4.90;99.90;;;;;;5032878;28;20080;-43
2021/11/22 00:41:34;;;;;;;6.07;2.72;;;4.90;99.90;;;;;;5032858;28;20469;-42
2021/11/22 00:43:59;;;;;;;4.38;2.60;;;5.00;99.90;;;;;;5032856;28;20120;-40
2021/11/22 00:46:26;;;;;;;5.20;2.38;;;5.00;99.90;;;;;;5032652;28;20038;-40
2021/11/22 00:48:52;;;;;;;4.10;2.28;;;4.90;99.90;;;;;;5032351;28;20025;-41
2021/11/22 00:51:17;;;;;;;7.00;2.00;;;4.90;99.90;;;;;;5031553;28;20511;-41
2021/11/22 00:53:43;;;;;;;5.10;1.85;;;4.90;99.90;;;;;;5032748;28;20032;-40
2021/11/22 00:56:09;;;;;;;5.30;2.20;;;4.80;99.90;;;;;;5032741;28;20440;-40
2021/11/22 00:58:34;;;;;;;4.97;2.38;;;4.70;99.90;;;;;;5031875;28;20477;-39
2021/11/22 01:01:00;;;;;;;3.75;2.30;;;4.60;99.90;;;;;;5032691;28;20476;-42
2021/11/22 01:03:26;;;;;;;6.35;2.38;;;4.60;99.90;;;;;;5032432;28;20030;-40
2021/11/22 01:05:51;;;;;;;7.53;2.58;;;4.50;99.90;;;;;;5031117;28;20025;-40
2021/11/22 01:08:17;;;;;;;5.72;1.95;;;4.40;99.90;;;;;;5032576;28;20385;-47
2021/11/22 01:10:42;;;;;;;6.65;1.90;;;4.30;99.90;;;;;;5032536;28;20103;-44
2021/11/22 01:13:08;;;;;;;5.70;2.03;;;4.30;99.90;;;;;;5032472;28;20025;-48
2021/11/22 01:15:34;;;;;;;5.85;2.35;;;4.20;99.90;;;;;;5032692;28;20052;-46
2021/11/22 01:18:01;;;;;;;7.10;2.88;;;4.10;99.90;;;;;;5032518;28;20025;-44
2021/11/22 01:20:29;;;;;;;5.95;2.15;;;4.00;99.90;;;;;;5030939;28;20022;-41
2021/11/22 01:22:56;;;;;;;3.65;1.98;;;4.00;99.90;;;;;;5032371;28;20022;-48
2021/11/22 01:25:22;;;;;;;4.35;2.08;;;4.00;99.90;;;;;;5032237;28;20017;-48
2021/11/22 01:27:48;;;;;;;3.83;1.70;;;3.90;99.90;;;;;;5032347;28;20033;-43
2021/11/22 01:30:14;;;;;;;4.80;2.17;;;3.90;99.90;;;;;;5032408;28;20048;-43
2021/11/22 01:32:41;;;;;;;4.07;2.05;;;3.80;99.90;;;;;;5032205;28;20017;-45
2021/11/22 01:35:07;;;;;;;5.65;2.10;;;3.90;99.90;;;;;;5030865;28;20053;-47
2021/11/22 01:37:32;;;;;;;3.85;1.73;;;3.80;99.90;;;;;;5032192;28;20039;-41
2021/11/22 01:39:58;;;;;;;4.97;2.20;;;3.80;99.90;;;;;;5032268;28;20022;-43
2021/11/22 01:42:23;;;;;;;2.60;1.58;;;3.80;99.90;;;;;;5032330;28;20033;-45
2021/11/22 01:44:49;;;;;;;3.00;1.45;;;3.90;99.90;;;;;;5031753;28;20029;-44
2021/11/22 01:47:14;;;;;;;7.07;1.95;;;4.00;99.90;;;;;;5032235;28;20504;-41
2021/11/22 01:49:40;;;;;;;2.17;1.40;;;4.00;99.90;;;;;;5030439;28;20033;-41
2021/11/22 01:52:06;;;;;;;4.28;1.80;;;4.10;99.90;;;;;;5028630;28;20037;-43
2021/11/22 01:54:32;;;;;;;4.70;1.85;;;4.20;99.90;;;;;;5031944;28;20029;-42
2021/11/22 01:56:58;;;;;;;2.67;1.77;;;4.20;99.90;;;;;;5032182;28;20030;-45
2021/11/22 01:59:24;;;;;;;5.95;1.63;;;4.30;99.90;;;;;;5032048;28;20032;-41
2021/11/22 02:01:50;;;;;;;1.65;1.40;;;4.40;99.90;;;;;;5031957;28;20033;-46
2021/11/22 02:04:16;;;;;;;2.30;1.40;;;4.40;99.90;;;;;;5030677;28;20097;-45
2021/11/22 02:06:42;;;;;;;2.83;1.35;;;4.50;99.90;;;;;;5031718;28;20021;-43
2021/11/22 02:09:08;;;;;;;3.85;1.45;;;4.60;99.90;;;;;;5032054;28;20041;-40
2021/11/22 02:11:34;;;;;;;4.28;1.65;;;4.70;99.90;;;;;;5035212;28;20021;-42
2021/11/22 02:14:01;;;;;;;2.88;1.30;;;4.70;99.90;;;;;;5035647;28;20484;-42
2021/11/22 02:16:27;;;;;;;2.13;1.40;;;4.80;99.90;;;;;;5035456;28;20048;-42
2021/11/22 02:18:55;;;;;;;2.05;1.40;;;4.80;99.90;;;;;;5034737;28;20021;-43
2021/11/22 02:21:20;;;;;;;2.25;1.55;;;4.90;99.90;;;;;;5035456;28;20033;-41
2021/11/22 02:23:46;;;;;;;3.78;1.50;;;4.90;99.90;;;;;;5035562;28;20401;-41
2021/11/22 02:26:12;;;;;;;4.22;2.00;;;4.90;99.90;;;;;;5035293;28;20108;-44
2021/11/22 02:28:37;;;;;;;2.97;1.30;;;5.00;99.90;;;;;;5035140;28;20033;-40
2021/11/22 02:31:03;;;;;;;3.30;1.50;;;5.00;99.90;;;;;;5035281;28;20032;-41
2021/11/22 02:33:29;;;;;;;3.20;1.40;;;5.00;99.90;;;;;;5034920;28;20410;-44
2021/11/22 02:35:58;;;;;;;2.60;1.40;;;5.10;99.90;;;;;;5033890;28;20055;-43
2021/11/22 02:38:27;;;;;;;4.68;1.80;;;5.10;99.90;;;;;;5035065;28;20072;-43
2021/11/22 02:40:54;;;;;;;2.20;1.35;;;5.10;99.90;;;;;;5035314;28;20021;-40
2021/11/22 02:43:19;;;;;;;2.03;1.30;;;5.20;99.90;;;;;;5035114;28;20404;-40
2021/11/22 02:45:45;;;;;;;2.75;1.40;;;5.20;99.90;;;;;;5034789;28;20090;-41
2021/11/22 02:48:11;;;;;;;1.77;1.35;;;5.20;99.90;;;;;;5034802;28;20416;-41
2021/11/22 02:50:36;;;;;;;4.72;1.92;;;5.30;99.90;;;;;;5033584;28;20144;-42
2021/11/22 02:53:02;;;;;;;2.72;1.42;;;5.30;99.90;;;;;;5035258;28;20045;-43
2021/11/22 02:55:28;;;;;;;5.25;2.05;;;5.30;99.90;;;;;;5034841;28;20528;-41
2021/11/22 02:57:53;;;;;;;7.05;2.35;;;5.30;99.90;;;;;;5034757;28;20039;-41
2021/11/22 03:00:28;;;;;;;3.10;2.00;;;5.30;99.90;;;;;;5034636;28;20025;-41
2021/11/22 03:02:54;;;;;;;3.92;2.03;;;5.30;99.90;;;;;;5034555;28;20353;-41
2021/11/22 03:05:21;;;;;;;3.33;2.00;;;5.30;99.90;;;;;;5033275;28;20045;-41
2021/11/22 03:07:50;;;;;;;4.20;1.40;;;5.30;99.90;;;;;;5034562;28;20025;-43
2021/11/22 03:10:17;;;;;;;5.75;2.13;;;5.40;99.90;;;;;;5034566;28;20032;-41
2021/11/22 03:12:44;;;;;;;3.92;1.70;;;5.30;99.90;;;;;;5034510;28;20036;-41
2021/11/22 03:15:15;;;;;;;6.25;1.77;;;5.30;99.90;;;;;;5034314;28;20370;-40
2021/11/22 03:17:42;;;;;;;7.63;2.30;;;5.30;99.90;;;;;;5034293;28;20036;-41
2021/11/22 03:20:10;;;;;;;5.47;2.00;;;5.30;99.90;;;;;;5033117;28;20101;-41
2021/11/22 03:22:35;;;;;;;6.68;2.40;;;5.30;99.90;;;;;;5033510;28;20120;-40
2021/11/22 03:25:01;;;;;;;5.72;2.53;;;5.30;99.90;;;;;;5034225;28;20112;-40
2021/11/22 03:27:28;;;;;;;6.20;2.10;;;5.30;99.90;;;;;;5034199;28;20506;-43
2021/11/22 03:29:53;;;;;;;5.30;1.42;;;5.20;99.90;;;;;;5034045;28;20025;-41
2021/11/22 03:32:19;;;;;;;6.00;1.85;;;5.30;99.90;;;;;;5034144;28;20032;-41
2021/11/22 03:34:45;;;;;;;2.83;1.63;;;5.30;99.90;;;;;;5032619;28;20084;-40
2021/11/22 03:37:11;;;;;;;3.67;1.63;;;5.30;99.90;;;;;;5034085;28;20592;-40
2021/11/22 03:39:36;;;;;;;4.90;1.90;;;5.40;99.90;;;;;;5033820;28;20576;-43
2021/11/22 03:42:06;;;;;;;5.47;2.60;;;5.40;99.90;;;;;;5033831;28;20029;-46
2021/11/22 03:44:33;;;;;;;6.75;2.30;;;5.40;99.90;;;;;;5033648;28;20515;-45
2021/11/22 03:46:58;;;;;;;3.47;1.70;;;5.50;99.90;;;;;;5033758;28;20033;-44
2021/11/22 03:49:24;;;;;;;3.33;2.20;;;5.50;99.90;;;;;;5032507;28;20024;-46
2021/11/22 03:51:50;;;;;;;4.22;1.75;;;5.50;99.90;;;;;;5033683;28;20021;-43
2021/11/22 03:54:16;;;;;;;3.22;1.75;;;5.60;99.90;;;;;;5033697;28;20052;-46
2021/11/22 03:56:42;;;;;;;4.20;1.92;;;5.50;99.90;;;;;;5033449;28;20041;-47
2021/11/22 03:59:08;;;;;;;5.07;2.05;;;5.60;99.90;;;;;;5033709;28;20037;-46
2021/11/22 04:01:34;;;;;;;4.70;2.33;;;5.50;99.90;;;;;;5033535;28;20503;-42
2021/11/22 04:04:00;;;;;;;4.40;2.70;;;5.60;99.90;;;;;;5032250;28;20511;-44
2021/11/22 04:06:26;;;;;;;7.25;2.58;;;5.60;99.90;;;;;;5033461;28;20021;-47
2021/11/22 04:08:52;;;;;;;4.05;2.47;;;5.60;99.90;;;;;;5033274;28;20373;-42
2021/11/22 04:11:17;;;;;;;7.70;2.85;;;5.60;99.90;;;;;;5033264;28;20038;-42
2021/11/22 04:13:43;;;;;;;6.22;2.92;;;5.60;99.90;;;;;;5033272;28;20122;-41
2021/11/22 04:16:10;;;;;;;4.70;2.65;;;5.70;99.90;;;;;;5033236;28;20033;-47
2021/11/22 04:18:35;;;;;;;5.78;2.50;;;5.70;99.90;;;;;;5033119;28;20029;-45
2021/11/22 04:21:01;;;;;;;5.97;2.72;;;5.70;99.90;;;;;;5032037;28;20477;-44
2021/11/22 04:23:27;;;;;;;4.03;2.30;;;5.60;99.90;;;;;;5033154;28;20032;-41
2021/11/22 04:25:52;;;;;;;5.20;2.40;;;5.70;99.90;;;;;;5032926;28;20026;-45
2021/11/22 04:28:18;;;;;;;8.35;2.78;;;5.70;99.90;;;;;;5033024;28;20022;-47
2021/11/22 04:30:43;;;;;;;4.75;1.98;;;5.70;99.90;;;;;;5032996;28;20025;-45
2021/11/22 04:33:09;;;;;;;3.50;2.00;;;5.70;99.90;;;;;;5032737;28;20025;-41
2021/11/22 04:35:35;;;;;;;8.40;2.47;;;5.80;99.90;;;;;;5031792;28;20505;-41
2021/11/22 04:38:02;;;;;;;4.78;2.00;;;5.70;99.90;;;;;;5032959;28;20037;-46
2021/11/22 04:40:28;;;;;;;7.10;2.38;;;5.80;99.90;;;;;;5032906;28;20035;-45
2021/11/22 04:42:54;;;;;;;4.88;2.05;;;5.80;99.90;;;;;;5032865;28;20079;-40
2021/11/22 04:45:22;;;;;;;4.53;2.15;;;5.80;99.90;;;;;;5032818;28;20412;-41
2021/11/22 04:47:50;;;;;;;4.15;1.83;;;5.80;99.90;;;;;;5032810;28;20026;-41
2021/11/22 04:50:16;;;;;;;4.90;2.10;;;5.80;99.90;;;;;;5031629;28;20026;-43
2021/11/22 04:52:44;;;;;;;4.80;1.98;;;5.70;99.90;;;;;;5031445;28;20022;-41
2021/11/22 04:55:11;;;;;;;6.60;2.17;;;5.70;99.90;;;;;;5032654;28;20025;-40
2021/11/22 04:57:37;;;;;;;4.65;1.52;;;5.60;99.90;;;;;;5012997;28;20029;-42
2021/11/22 05:00:05;;;;;;;2.78;1.38;;;5.70;99.90;;;;;;5012653;28;20025;-41
2021/11/22 05:02:31;;;;;;;4.18;1.40;;;5.70;99.90;;;;;;5011461;28;20116;-43
2021/11/22 05:04:56;;;;;;;6.28;1.58;;;5.60;99.90;;;;;;5011159;28;20159;-41
2021/11/22 05:07:22;;;;;;;2.72;1.05;;;5.60;99.90;;;;;;5012845;28;20029;-43
2021/11/22 05:09:47;;;;;;;4.03;1.30;;;5.50;99.90;;;;;;5012283;28;20104;-40
2021/11/22 05:12:15;;;;;;;4.30;1.42;;;5.50;99.90;;;;;;5012682;28;20142;-44
2021/11/22 05:14:40;;;;;;;2.30;1.15;;;5.30;99.90;;;;;;5012598;28;20096;-41
2021/11/22 05:17:06;;;;;;;4.45;1.38;;;5.20;99.90;;;;;;5012589;28;20434;-43
2021/11/22 05:19:32;;;;;;;3.28;1.10;;;5.10;99.90;;;;;;5011251;28;20041;-42
2021/11/22 05:22:01;;;;;;;5.25;1.55;;;5.00;99.90;;;;;;5012342;28;20493;-42
2021/11/22 05:24:34;;;;;;;3.33;1.20;;;4.90;99.90;;;;;;5012401;28;20144;-43
2021/11/22 05:27:03;;;;;;;2.72;1.08;;;4.80;99.90;;;;;;5012243;28;20037;-43
2021/11/22 05:29:28;;;;;;;6.40;1.25;;;4.70;99.90;;;;;;5012484;28;20153;-42
2021/11/22 05:31:54;;;;;;;4.90;1.00;;;4.60;99.90;;;;;;5012232;28;20108;-44
2021/11/22 05:34:20;;;;;;;2.20;1.17;;;4.50;99.90;;;;;;5010987;28;20128;-44
2021/11/22 05:36:46;;;;;;;3.30;1.00;;;4.40;99.90;;;;;;5012474;28;20424;-41
2021/11/22 05:39:12;;;;;;;2.58;1.30;;;4.30;99.90;;;;;;5012523;28;20386;-39
2021/11/22 05:41:38;;;;;;;4.43;0.88;;;4.20;99.90;;;;;;5012494;28;20465;-40
2021/11/22 05:44:04;;;;;;;2.95;1.05;;;4.10;99.90;;;;;;5015792;28;20080;-40
2021/11/22 05:46:29;;;;;;;4.00;1.23;;;4.00;99.90;;;;;;5035067;28;20029;-40
2021/11/22 05:48:55;;;;;;;1.40;0.82;;;4.00;99.90;;;;;;5034519;28;20064;-39
2021/11/22 05:51:21;;;;;;;3.08;0.75;;;3.90;99.90;;;;;;5035851;28;20017;-41
2021/11/22 05:53:49;;;;;;;3.95;0.60;;;3.80;99.90;;;;;;5035668;28;20476;-42
2021/11/22 05:56:16;;;;;;;2.47;0.73;;;3.70;99.90;;;;;;5032151;28;20492;-42
2021/11/22 05:58:42;;;;;;;1.25;0.70;;;3.70;99.90;;;;;;5034244;28;20410;-40
2021/11/22 06:01:08;;;;;;;1.98;1.02;;;3.60;99.90;;;;;;5033924;28;20072;-42
2021/11/22 06:03:34;;;;;;;3.20;0.98;;;3.50;99.90;;;;;;5034440;28;20061;-39
2021/11/22 06:05:59;;;;;;;0.90;0.70;;;3.50;99.90;;;;;;5032581;28;20473;-40
2021/11/22 06:08:25;;;;;;;3.88;1.00;;;3.40;99.90;;;;;;5034416;28;20033;-41
2021/11/22 06:10:52;;;;;;;2.80;0.85;;;3.40;99.90;;;;;;5034186;28;20025;-41
2021/11/22 06:13:19;;;;;;;1.85;0.70;;;3.30;99.90;;;;;;5034450;28;20057;-48
2021/11/22 06:15:46;;;;;;;0.82;0.50;;;3.30;99.90;;;;;;5034229;28;20026;-47
2021/11/22 06:18:12;;;;;;;2.28;0.43;;;3.20;99.90;;;;;;5034128;28;20093;-41
2021/11/22 06:20:38;;;;;;;1.42;0.70;;;3.20;99.90;;;;;;5032869;28;20026;-44
2021/11/22 06:23:04;;;;;;;1.63;0.55;;;3.20;99.90;;;;;;5033096;28;20075;-46
2021/11/22 06:25:31;;;;;;;1.70;0.50;;;3.10;99.90;;;;;;5033803;28;20021;-43
2021/11/22 06:27:56;;;;;;;1.65;0.57;;;3.10;99.90;;;;;;5034182;28;20028;-44
2021/11/22 06:30:22;;;;;;;1.17;0.60;;;3.10;99.90;;;;;;5034005;28;20018;-42
2021/11/22 06:32:48;;;;;;;3.75;0.70;;;3.00;99.90;;;;;;5033730;28;20075;-42
2021/11/22 06:35:17;;;;;;;3.13;0.52;;;3.00;99.90;;;;;;5032014;28;20128;-43
2021/11/22 06:37:42;;;;;;;1.02;0.50;;;3.00;99.90;;;;;;5033816;28;20104;-40
2021/11/22 06:40:09;;;;;;;3.10;0.60;;;3.00;99.90;;;;;;5033974;28;20421;-40
2021/11/22 06:42:35;;;;;;;1.75;0.57;;;3.00;99.90;;;;;;5033621;28;20088;-45
2021/11/22 06:45:01;;;;;;;1.92;0.50;;;2.90;99.90;;;;;;5033517;28;20029;-48
2021/11/22 06:47:26;;;;;;;0.60;0.60;;;2.90;99.90;;;;;;5033716;28;20136;-41
2021/11/22 06:49:53;;;;;;;1.05;0.70;;;2.90;99.90;;;;;;5032161;28;20018;-43
2021/11/22 06:52:21;;;;;;;1.67;0.60;;;2.80;99.90;;;;;;5033456;28;20095;-44
2021/11/22 06:54:47;;;;;;;3.22;0.55;;;2.80;99.90;;;;;;5033738;28;20021;-44
2021/11/22 06:57:14;;;;;;;0.70;0.30;;;2.70;99.90;;;;;;5032115;28;20365;-41
2021/11/22 06:59:40;;;;;;;2.13;0.60;;;2.80;99.90;;;;;;5033354;28;20025;-40
2021/11/22 07:02:12;;;;;;;1.15;0.25;;;2.70;99.90;;;;;;5033134;28;20037;-44
2021/11/22 07:04:38;;;;;;;0.93;0.40;;;2.80;99.90;;;;;;5031927;28;20477;-42
2021/11/22 07:07:03;;;;;;;1.02;0.40;;;2.70;99.90;;;;;;5033054;28;20030;-41
2021/11/22 07:09:29;;;;;;;1.85;0.43;;;2.80;99.90;;;;;;5033272;28;20072;-42
2021/11/22 07:11:54;;;;;;;0.40;0.40;;;2.80;99.90;;;;;;5033235;28;20341;-41
2021/11/22 07:14:20;;;;;;;0.70;0.40;;;2.80;99.90;;;;;;5033134;28;20032;-41
2021/11/22 07:16:46;;;;;;;2.90;0.50;;;2.80;99.90;;;;;;5033138;28;20032;-42
2021/11/22 07:19:11;;;;;;;0.75;0.40;;;2.80;99.90;;;;;;5031568;28;20116;-41
2021/11/22 07:21:37;;;;;;;0.73;0.30;;;2.80;99.90;;;;;;5032935;28;20085;-45
2021/11/22 07:24:02;;;;;;;0.35;0.30;;;2.80;99.90;;;;;;5032905;28;20108;-43
2021/11/22 07:26:28;;;;;;;1.13;0.45;;;2.80;99.90;;;;;;5033911;28;20473;-41
2021/11/22 07:28:53;;;;;;;1.65;0.28;;;2.90;99.90;;;;;;5034167;28;20029;-41
2021/11/22 07:31:19;;;;;;;1.10;0.45;;;3.00;99.90;;;;;;5034148;28;20021;-40
2021/11/22 07:33:44;;;;;;;0.43;0.30;;;3.10;99.90;;;;;;5033040;28;20045;-43
2021/11/22 07:36:10;;;;;;;0.70;0.22;;;3.20;99.90;;;;;;5033641;28;20079;-42
2021/11/22 07:38:35;;;;;;;0.77;0.30;;;3.30;99.90;;;;;;5034071;28;20108;-44
2021/11/22 07:41:01;;;;;;;3.92;0.43;;;3.50;99.90;;;;;;5033900;28;20469;-43
2021/11/22 07:43:27;;;;;;;1.20;0.32;;;3.60;99.90;;;;;;5034073;28;20448;-41
2021/11/22 07:45:53;;;;;;;0.43;0.30;;;3.80;99.90;;;;;;5033790;28;20109;-41
2021/11/22 07:48:18;;;;;;;1.52;0.40;;;3.90;99.90;;;;;;5033684;28;20120;-41
2021/11/22 07:50:44;;;;;;;0.55;0.45;;;4.00;99.90;;;;;;5032523;28;20024;-40
2021/11/22 07:53:10;;;;;;;0.20;0.20;;;4.10;99.90;;;;;;5033734;28;20034;-43
2021/11/22 07:55:35;;;;;;;0.75;0.40;;;4.20;99.90;;;;;;5033835;28;20484;-40
2021/11/22 07:58:01;;;;;;;1.27;0.30;;;4.30;99.90;;;;;;5033640;28;20358;-40
2021/11/22 08:00:28;;;;;;;0.40;0.40;;;4.30;99.90;;;;;;5033699;28;20068;-42
2021/11/22 08:02:54;;;;;;;1.33;0.50;;;4.30;99.90;;;;;;5033463;28;20095;-40
2021/11/22 08:05:22;;;;;;;2.03;0.57;;;4.40;99.90;;;;;;5032128;28;20505;-40
2021/11/22 08:07:50;;;;;;;2.33;0.55;;;4.40;99.90;;;;;;5033244;28;20026;-40
2021/11/22 08:12:48;;;;;;;1.45;0.80;;;4.40;99.90;;;;;;5033510;28;20036;-41
2021/11/22 08:15:15;;;;;;;3.22;0.43;;;4.40;99.90;;;;;;5033282;28;20052;-41
2021/11/22 08:17:42;;;;;;;0.90;0.45;;;4.40;99.90;;;;;;5033206;28;20080;-41
2021/11/22 08:20:13;;;;;;;1.23;0.50;;;4.50;99.90;;;;;;5032093;28;20034;-40
2021/11/22 08:22:39;;;;;;;1.10;0.40;;;4.60;99.90;;;;;;5033228;28;20033;-40
2021/11/22 08:25:06;;;;;;;1.35;0.30;;;4.60;99.90;;;;;;5033063;28;20029;-43
2021/11/22 08:27:32;;;;;;;1.90;0.60;;;4.60;99.90;;;;;;5033235;28;20357;-40
2021/11/22 08:30:03;;;;;;;0.70;0.50;;;4.70;99.90;;;;;;5033321;28;20067;-40
2021/11/22 08:32:28;;;;;;;1.33;1.15;;;4.80;99.90;;;;;;5033142;28;20071;-41
2021/11/22 08:34:54;;;;;;;2.35;0.52;;;4.90;99.90;;;;;;5031588;28;20120;-41
2021/11/22 08:37:19;;;;;;;1.52;0.50;;;4.90;99.90;;;;;;5032933;28;20456;-40
2021/11/22 08:39:45;;;;;;;0.57;0.32;;;5.00;99.90;;;;;;5032968;28;20040;-40
2021/11/22 08:42:11;;;;;;;0.68;0.50;;;5.00;99.90;;;;;;5033128;28;20025;-42
2021/11/22 08:44:37;;;;;;;2.85;0.90;;;5.10;99.90;;;;;;5032838;28;20105;-45
2021/11/22 08:47:04;;;;;;;1.02;0.50;;;5.10;99.90;;;;;;5032711;28;20029;-49
2021/11/22 08:49:30;;;;;;;0.47;0.22;;;5.10;99.90;;;;;;5031542;28;20092;-46
2021/11/22 08:51:56;;;;;;;0.85;0.45;;;5.20;99.90;;;;;;5032889;28;20108;-49
2021/11/22 08:54:22;;;;;;;4.25;0.73;;;5.20;99.90;;;;;;5032725;28;20037;-41
2021/11/22 08:56:48;;;;;;;1.20;0.40;;;5.20;99.90;;;;;;5032769;28;20025;-46
2021/11/22 08:59:16;;;;;;;1.05;0.50;;;5.30;99.90;;;;;;5032424;28;20066;-45
2021/11/22 09:01:42;;;;;;;2.75;0.63;;;5.30;99.90;;;;;;5032715;28;20067;-47
2021/11/22 09:04:07;;;;;;;0.77;0.40;;;5.30;99.90;;;;;;5031257;28;20021;-44
2021/11/22 09:06:34;;;;;;;1.40;0.50;;;5.30;99.90;;;;;;5032575;28;20192;-45
2021/11/22 09:09:03;;;;;;;1.40;0.60;;;5.30;99.90;;;;;;5032693;28;20026;-44
2021/11/22 09:11:28;;;;;;;1.23;0.50;;;5.30;99.90;;;;;;5032502;28;20469;-42
2021/11/22 09:13:54;;;;;;;0.75;0.43;;;5.40;99.90;;;;;;5032483;28;20129;-43
2021/11/22 09:16:26;;;;;;;1.10;0.30;;;5.50;99.90;;;;;;5032407;28;20108;-46
2021/11/22 09:18:52;;;;;;;1.80;0.30;;;5.50;99.90;;;;;;5031275;28;20017;-43
2021/11/22 09:21:18;;;;;;;1.45;0.80;;;5.50;99.90;;;;;;5035696;28;20075;-42
2021/11/22 09:23:46;;;;;;;1.38;0.30;;;5.60;99.90;;;;;;5036585;28;20112;-44
2021/11/22 09:26:11;;;;;;;0.73;0.40;;;5.60;99.90;;;;;;5036420;28;20018;-47
2021/11/22 09:28:37;;;;;;;1.85;0.30;;;5.80;99.90;;;;;;5036364;28;20029;-41
2021/11/22 09:31:02;;;;;;;0.47;0.20;;;5.90;99.90;;;;;;5036508;28;20033;-43
2021/11/22 09:33:28;;;;;;;2.17;0.50;;;6.00;99.90;;;;;;5036112;28;20053;-41
2021/11/22 09:35:53;;;;;;;1.15;0.50;;;6.10;99.90;;;;;;5035131;28;20025;-46
2021/11/22 09:38:19;;;;;;;1.10;0.28;;;6.10;99.90;;;;;;5036239;28;20069;-41
2021/11/22 09:40:44;;;;;;;0.40;0.40;;;6.30;99.90;;;;;;5036264;28;20396;-41
2021/11/22 09:43:10;;;;;;;1.55;0.63;;;6.30;99.90;;;;;;5035984;28;20040;-45
2021/11/22 09:45:37;;;;;;;1.38;0.80;;;6.40;99.90;;;;;;5036063;28;20061;-41
2021/11/22 09:48:03;;;;;;;1.50;0.40;;;6.40;99.90;;;;;;5036195;28;20105;-43
2021/11/22 09:50:31;;;;;;;1.00;0.43;;;6.50;99.90;;;;;;5034671;28;20033;-40
2021/11/22 09:52:57;;;;;;;0.85;0.52;;;6.60;99.90;;;;;;5036055;28;20491;-43
2021/11/22 09:55:24;;;;;;;0.55;0.35;;;6.60;99.90;;;;;;5036194;28;20380;-41
2021/11/22 09:57:50;;;;;;;0.90;0.50;;;6.60;99.90;;;;;;5035753;28;20025;-40
2021/11/22 10:00:16;;;;;;;0.28;0.28;;;6.60;99.90;;;;;;5035871;28;20128;-44
2021/11/22 10:02:49;;;;;;;0.80;0.30;;;6.60;99.90;;;;;;5036007;28;20061;-44
2021/11/22 10:05:24;;;;;;;1.15;0.55;;;6.70;99.90;;;;;;5034354;28;20037;-42
2021/11/22 10:08:08;;;;;;;0.82;0.47;;;6.60;99.90;;;;;;5035804;28;20051;-42
2021/11/22 10:10:48;;;;;;;2.15;0.50;;;6.60;99.90;;;;;;5035790;28;20021;-41
2021/11/22 10:13:33;;;;;;;1.33;0.50;;;6.70;99.90;;;;;;5035837;28;20032;-41
2021/11/22 10:16:07;;;;;;;0.73;0.30;;;6.70;99.90;;;;;;5035525;28;20056;-41
2021/11/22 10:18:43;;;;;;;0.45;0.25;;;6.70;99.90;;;;;;5035345;28;20083;-48
2021/11/22 10:21:12;;;;;;;0.70;0.40;;;6.70;99.90;;;;;;5035483;28;20029;-43
2021/11/22 10:23:41;;;;;;;0.90;0.55;;;6.70;99.90;;;;;;5035278;28;20040;-40
2021/11/22 10:26:11;;;;;;;3.90;1.08;;;6.70;99.90;;;;;;5035343;28;20076;-40
2021/11/22 10:28:48;;;;;;;2.15;1.10;;;6.70;99.90;;;;;;5035156;28;20036;-41
2021/11/22 10:31:22;;;;;;;1.73;0.95;;;6.70;99.90;;;;;;5035021;28;20022;-40
2021/11/22 10:33:50;;;;;;;2.10;1.08;;;6.60;99.90;;;;;;5033881;28;20041;-40
2021/11/22 10:36:19;;;;;;;1.30;0.88;;;6.60;99.90;;;;;;5035132;28;20044;-41
2021/11/22 10:38:50;;;;;;;2.17;1.00;;;6.70;99.90;;;;;;5035261;28;20029;-40
2021/11/22 10:41:20;;;;;;;2.58;0.60;;;6.70;99.90;;;;;;5035109;28;20420;-43
2021/11/22 10:44:07;;;;;;;0.93;0.50;;;6.80;99.90;;;;;;5035117;28;20040;-45
2021/11/22 10:46:48;;;;;;;0.98;0.50;;;6.90;99.90;;;;;;5034837;28;20033;-40
2021/11/22 10:49:28;;;;;;;2.10;0.80;;;6.90;99.90;;;;;;5033754;28;20026;-41
2021/11/22 10:52:06;;;;;;;1.00;0.60;;;6.90;99.90;;;;;;5034875;28;20072;-41
2021/11/22 10:54:35;;;;;;;0.57;0.57;;;6.90;99.90;;;;;;5034790;28;20075;-43
2021/11/22 10:57:11;;;;;;;1.02;0.50;;;6.80;99.90;;;;;;5034872;28;20065;-41
2021/11/22 10:59:37;;;;;;;2.60;0.52;;;6.80;99.90;;;;;;5034725;28;20029;-42
2021/11/22 11:02:02;;;;;;;3.33;0.40;;;6.80;99.90;;;;;;5034875;28;20113;-40
2021/11/22 11:04:31;;;;;;;0.77;0.45;;;6.80;99.90;;;;;;5033221;28;20021;-41
2021/11/22 11:07:02;;;;;;;0.73;0.30;;;6.80;99.90;;;;;;5034654;28;20071;-40
2021/11/22 11:09:50;;;;;;;0.30;0.30;;;6.80;99.90;;;;;;5034562;28;20029;-40
2021/11/22 11:12:18;;;;;;;1.25;0.40;;;6.80;99.90;;;;;;5034555;28;20022;-41
2021/11/22 11:14:50;;;;;;;1.98;0.55;;;6.80;99.90;;;;;;5034504;28;20025;-46
2021/11/22 11:17:34;;;;;;;0.77;0.30;;;6.70;99.90;;;;;;5034479;28;20033;-47
2021/11/22 11:20:14;;;;;;;0.43;0.43;;;6.70;99.90;;;;;;5033356;28;20469;-47
2021/11/22 11:22:40;;;;;;;3.22;0.50;;;6.80;99.90;;;;;;5034308;28;20081;-43
2021/11/22 11:25:07;;;;;;;3.13;0.60;;;6.80;99.90;;;;;;5034339;28;20026;-50
2021/11/22 11:27:37;;;;;;;1.08;0.40;;;6.70;97.70;;;;;;5034072;28;20117;-47
2021/11/22 11:30:03;;;;;;;2.65;0.40;;;6.60;98.90;;;;;;5034329;28;20067;-44
2021/11/22 11:32:30;;;;;;;0.65;0.40;;;6.60;98.00;;;;;;5034038;28;20496;-48
2021/11/22 11:34:56;;;;;;;0.30;0.30;;;6.50;98.70;;;;;;5032814;28;20405;-47
2021/11/22 11:37:58;;;;;;;0.30;0.30;;;6.50;98.70;;;;;;5034067;28;20025;-47
2021/11/22 11:40:45;;;;;;;0.57;0.40;;;6.50;99.80;;;;;;5034264;28;20356;-48
2021/11/22 11:43:20;;;;;;;0.77;0.20;;;6.40;97.50;;;;;;5033406;28;20029;-45
2021/11/22 11:46:11;;;;;;;0.55;0.35;;;6.30;97.90;;;;;;5033836;28;20080;-45
2021/11/22 11:49:01;;;;;;;0.50;0.30;;;6.30;99.90;;;;;;5033129;28;20104;-41
2021/11/22 11:51:38;;;;;;;0.28;0.17;;;6.40;99.00;;;;;;5033778;28;20362;-43
2021/11/22 11:54:06;;;;;;;0.80;0.47;;;6.50;99.20;;;;;;5033803;28;20040;-42
2021/11/22 11:56:34;;;;;;;1.38;0.30;;;6.40;97.30;;;;;;5033507;28;20473;-40
2021/11/22 11:59:13;;;;;;;0.85;0.40;;;6.50;98.20;;;;;;5033585;28;20033;-42
2021/11/22 12:02:10;;;;;;;8.85;0.50;;;6.70;97.60;;;;;;5033565;28;20072;-46
2021/11/22 12:04:48;;;;;;;0.47;0.35;;;6.90;91.30;;;;;;5016270;28;20048;-41
2021/11/22 12:07:39;;;;;;;0.88;0.28;;;7.10;92.60;;;;;;5033379;28;20036;-43
2021/11/22 12:10:07;;;;;;;0.60;0.43;;;7.20;92.30;;;;;;5033524;28;20024;-44
2021/11/22 12:12:41;;;;;;;0.32;0.20;;;7.30;92.00;;;;;;5033445;28;20021;-44
2021/11/22 12:15:14;;;;;;;0.32;0.30;;;7.40;95.20;;;;;;5033420;28;20029;-43
2021/11/22 12:17:39;;;;;;;1.05;0.35;;;7.50;91.70;;;;;;5033181;28;20067;-43
2021/11/22 12:20:31;;;;;;;0.63;0.35;;;7.40;78.00;;;;;;5032071;28;20021;-41
2021/11/22 12:23:02;;;;;;;0.30;0.10;;;7.30;85.40;;;;;;5033170;28;20108;-43
2021/11/22 12:25:39;;;;;;;2.15;0.43;;;7.20;82.30;;;;;;5033052;28;20024;-45
2021/11/22 12:28:34;;;;;;;0.13;0.10;;;7.20;84.30;;;;;;5033110;28;20491;-41
2021/11/22 12:31:14;;;;;;;0.55;0.20;;;7.30;90.80;;;;;;5033002;28;20469;-41
2021/11/22 12:34:04;;;;;;;0.63;0.30;;;7.30;90.50;;;;;;5031540;28;20470;-41
2021/11/22 12:36:33;;;;;;;0.77;0.60;;;7.40;78.10;;;;;;5021559;28;20060;-41
2021/11/22 12:39:26;;;;;;;0.85;0.40;;;7.40;80.80;;;;;;5033309;28;20384;-42
2021/11/22 12:42:12;;;;;;;0.35;0.22;;;7.40;78.60;;;;;;5029550;28;20084;-40
2021/11/22 12:44:37;;;;;;;4.80;0.75;;;7.40;81.50;;;;;;5032701;28;20040;-41
2021/11/22 12:47:11;;;;;;;0.55;0.40;;;7.40;83.00;;;;;;5032804;28;20416;-41
2021/11/22 12:49:41;;;;;;;0.80;0.50;;;7.30;77.50;;;;;;5031452;28;20026;-43
2021/11/22 12:52:18;;;;;;;0.95;0.55;;;7.30;81.20;;;;;;5032818;28;20502;-42
2021/11/22 12:54:57;;;;;;;0.60;0.30;;;7.30;78.70;;;;;;5031880;28;20030;-41
2021/11/22 12:57:24;;;;;;;0.50;0.35;;;7.20;71.80;;;;;;5032724;28;20021;-41
2021/11/22 13:00:15;;;;;;;0.38;0.30;;;7.10;76.80;;;;;;5032647;28;20049;-41
2021/11/22 13:02:42;;;;;;;0.28;0.28;;;7.10;78.40;;;;;;5032896;28;20021;-40
2021/11/22 13:05:08;;;;;;;0.20;0.20;;;7.00;81.50;;;;;;5031321;28;20033;-42